sensor_id;sensor_type;location;lat;lon;timestamp;temperature;humidity
39103;DHT22;24847;48.218;16.414;2023-11-22T00:02:16;7.80;76.50
39103;DHT22;24847;48.218;16.414;2023-11-22T00:07:18;7.70;76.90
39103;DHT22;24847;48.218;16.414;2023-11-22T00:12:22;7.60;77.60
39103;DHT22;24847;48.218;16.414;2023-11-22T00:17:25;7.70;77.60
39103;DHT22;24847;48.218;16.414;2023-11-22T00:22:27;7.70;77.30
39103;DHT22;24847;48.218;16.414;2023-11-22T00:27:34;7.70;76.90
39103;DHT22;24847;48.218;16.414;2023-11-22T00:32:40;7.60;77.10
39103;DHT22;24847;48.218;16.414;2023-11-22T00:37:42;7.40;77.80
39103;DHT22;24847;48.218;16.414;2023-11-22T00:42:46;7.40;77.60
39103;DHT22;24847;48.218;16.414;2023-11-22T00:47:48;7.40;77.80
39103;DHT22;24847;48.218;16.414;2023-11-22T00:52:50;7.40;77.60
39103;DHT22;24847;48.218;16.414;2023-11-22T00:57:54;7.10;78.60
39103;DHT22;24847;48.218;16.414;2023-11-22T01:02:57;7.30;77.50
39103;DHT22;24847;48.218;16.414;2023-11-22T01:07:59;7.20;76.70
39103;DHT22;24847;48.218;16.414;2023-11-22T01:13:02;7.00;77.50
39103;DHT22;24847;48.218;16.414;2023-11-22T01:18:05;7.10;76.50
39103;DHT22;24847;48.218;16.414;2023-11-22T01:23:07;7.00;76.60
39103;DHT22;24847;48.218;16.414;2023-11-22T01:28:10;7.20;75.20
39103;DHT22;24847;48.218;16.414;2023-11-22T01:33:12;6.90;76.70
39103;DHT22;24847;48.218;16.414;2023-11-22T01:38:15;6.80;77.30
39103;DHT22;24847;48.218;16.414;2023-11-22T01:43:19;6.90;77.60
39103;DHT22;24847;48.218;16.414;2023-11-22T01:48:24;6.70;78.40
39103;DHT22;24847;48.218;16.414;2023-11-22T01:53:27;6.60;79.10
39103;DHT22;24847;48.218;16.414;2023-11-22T01:58:32;6.40;79.60
39103;DHT22;24847;48.218;16.414;2023-11-22T02:03:35;6.50;78.70
39103;DHT22;24847;48.218;16.414;2023-11-22T02:08:37;6.40;77.90
39103;DHT22;24847;48.218;16.414;2023-11-22T02:13:41;6.20;78.00
39103;DHT22;24847;48.218;16.414;2023-11-22T02:18:43;6.20;78.00
39103;DHT22;24847;48.218;16.414;2023-11-22T02:23:47;6.10;77.60
39103;DHT22;24847;48.218;16.414;2023-11-22T02:28:49;6.00;78.30
39103;DHT22;24847;48.218;16.414;2023-11-22T02:33:51;6.10;78.00
39103;DHT22;24847;48.218;16.414;2023-11-22T02:38:55;6.10;77.80
39103;DHT22;24847;48.218;16.414;2023-11-22T02:43:57;5.80;79.40
39103;DHT22;24847;48.218;16.414;2023-11-22T02:48:59;5.70;79.30
39103;DHT22;24847;48.218;16.414;2023-11-22T02:54:03;5.70;79.50
39103;DHT22;24847;48.218;16.414;2023-11-22T02:59:06;5.70;79.50
39103;DHT22;24847;48.218;16.414;2023-11-22T03:04:13;5.80;79.60
39103;DHT22;24847;48.218;16.414;2023-11-22T03:09:17;5.80;79.00
39103;DHT22;24847;48.218;16.414;2023-11-22T03:14:19;5.80;78.90
39103;DHT22;24847;48.218;16.414;2023-11-22T03:19:22;5.50;79.30
39103;DHT22;24847;48.218;16.414;2023-11-22T03:24:26;5.50;79.30
39103;DHT22;24847;48.218;16.414;2023-11-22T03:29:29;5.30;78.70
39103;DHT22;24847;48.218;16.414;2023-11-22T03:34:31;5.10;79.30
39103;DHT22;24847;48.218;16.414;2023-11-22T03:39:35;5.30;78.20
39103;DHT22;24847;48.218;16.414;2023-11-22T03:44:37;5.30;78.80
39103;DHT22;24847;48.218;16.414;2023-11-22T03:49:39;5.30;78.40
39103;DHT22;24847;48.218;16.414;2023-11-22T03:54:42;5.10;78.90
39103;DHT22;24847;48.218;16.414;2023-11-22T03:59:45;5.10;79.10
39103;DHT22;24847;48.218;16.414;2023-11-22T04:04:47;4.90;80.20
39103;DHT22;24847;48.218;16.414;2023-11-22T04:09:51;4.70;80.10
39103;DHT22;24847;48.218;16.414;2023-11-22T04:14:53;4.90;79.80
39103;DHT22;24847;48.218;16.414;2023-11-22T04:19:55;5.00;79.50
39103;DHT22;24847;48.218;16.414;2023-11-22T04:24:59;4.80;79.50
39103;DHT22;24847;48.218;16.414;2023-11-22T04:30:01;4.90;79.40
39103;DHT22;24847;48.218;16.414;2023-11-22T04:35:05;4.70;79.20
39103;DHT22;24847;48.218;16.414;2023-11-22T04:40:10;4.80;79.20
39103;DHT22;24847;48.218;16.414;2023-11-22T04:45:16;4.70;80.20
39103;DHT22;24847;48.218;16.414;2023-11-22T04:50:18;4.50;81.30
39103;DHT22;24847;48.218;16.414;2023-11-22T04:55:22;4.60;81.70
39103;DHT22;24847;48.218;16.414;2023-11-22T05:00:24;4.50;82.10
39103;DHT22;24847;48.218;16.414;2023-11-22T05:05:26;4.70;81.40
39103;DHT22;24847;48.218;16.414;2023-11-22T05:10:30;4.60;81.30
39103;DHT22;24847;48.218;16.414;2023-11-22T05:15:32;4.60;81.40
39103;DHT22;24847;48.218;16.414;2023-11-22T05:20:34;4.40;81.60
39103;DHT22;24847;48.218;16.414;2023-11-22T05:25:38;4.60;81.30
39103;DHT22;24847;48.218;16.414;2023-11-22T05:30:40;4.70;80.70
39103;DHT22;24847;48.218;16.414;2023-11-22T05:35:42;4.70;80.80
39103;DHT22;24847;48.218;16.414;2023-11-22T05:40:46;4.70;80.30
39103;DHT22;24847;48.218;16.414;2023-11-22T05:45:48;4.80;80.30
39103;DHT22;24847;48.218;16.414;2023-11-22T05:50:50;4.70;80.30
39103;DHT22;24847;48.218;16.414;2023-11-22T05:55:54;4.70;79.30
39103;DHT22;24847;48.218;16.414;2023-11-22T06:00:56;4.60;80.00
39103;DHT22;24847;48.218;16.414;2023-11-22T06:05:58;4.60;80.00
39103;DHT22;24847;48.218;16.414;2023-11-22T06:11:02;4.50;79.90
39103;DHT22;24847;48.218;16.414;2023-11-22T06:16:04;4.40;79.00
39103;DHT22;24847;48.218;16.414;2023-11-22T06:21:06;4.50;80.20
39103;DHT22;24847;48.218;16.414;2023-11-22T06:26:10;4.40;80.80
39103;DHT22;24847;48.218;16.414;2023-11-22T06:31:12;4.10;81.90
39103;DHT22;24847;48.218;16.414;2023-11-22T06:36:15;4.30;81.60
39103;DHT22;24847;48.218;16.414;2023-11-22T06:41:18;4.40;81.50
39103;DHT22;24847;48.218;16.414;2023-11-22T06:46:22;4.30;81.00
39103;DHT22;24847;48.218;16.414;2023-11-22T06:51:24;4.30;80.60
39103;DHT22;24847;48.218;16.414;2023-11-22T06:56:29;4.50;79.40
39103;DHT22;24847;48.218;16.414;2023-11-22T07:01:31;4.40;79.00
39103;DHT22;24847;48.218;16.414;2023-11-22T07:06:33;4.30;78.90
39103;DHT22;24847;48.218;16.414;2023-11-22T07:11:38;4.60;78.50
39103;DHT22;24847;48.218;16.414;2023-11-22T07:16:40;4.40;78.70
39103;DHT22;24847;48.218;16.414;2023-11-22T07:21:42;4.30;78.70
39103;DHT22;24847;48.218;16.414;2023-11-22T07:26:46;4.60;77.30
39103;DHT22;24847;48.218;16.414;2023-11-22T07:31:48;4.30;77.30
39103;DHT22;24847;48.218;16.414;2023-11-22T07:36:52;4.40;77.80
39103;DHT22;24847;48.218;16.414;2023-11-22T07:41:56;4.30;77.90
39103;DHT22;24847;48.218;16.414;2023-11-22T07:46:58;4.40;76.30
39103;DHT22;24847;48.218;16.414;2023-11-22T07:52:01;4.30;77.20
39103;DHT22;24847;48.218;16.414;2023-11-22T07:57:05;4.40;76.70
39103;DHT22;24847;48.218;16.414;2023-11-22T08:02:08;4.50;75.50
39103;DHT22;24847;48.218;16.414;2023-11-22T08:07:12;4.10;74.90
39103;DHT22;24847;48.218;16.414;2023-11-22T08:12:16;4.00;75.20
39103;DHT22;24847;48.218;16.414;2023-11-22T08:17:19;4.30;75.40
39103;DHT22;24847;48.218;16.414;2023-11-22T08:22:21;4.20;74.90
39103;DHT22;24847;48.218;16.414;2023-11-22T08:27:25;3.90;73.60
39103;DHT22;24847;48.218;16.414;2023-11-22T08:32:27;4.00;72.30
39103;DHT22;24847;48.218;16.414;2023-11-22T08:37:31;4.10;73.00
39103;DHT22;24847;48.218;16.414;2023-11-22T08:42:37;3.70;73.60
39103;DHT22;24847;48.218;16.414;2023-11-22T08:47:41;4.00;73.00
39103;DHT22;24847;48.218;16.414;2023-11-22T08:52:44;3.90;73.90
39103;DHT22;24847;48.218;16.414;2023-11-22T08:57:49;3.90;74.50
39103;DHT22;24847;48.218;16.414;2023-11-22T09:02:52;3.80;73.90
39103;DHT22;24847;48.218;16.414;2023-11-22T09:07:55;3.90;73.20
39103;DHT22;24847;48.218;16.414;2023-11-22T09:13:00;3.90;71.90
39103;DHT22;24847;48.218;16.414;2023-11-22T09:18:03;3.90;72.00
39103;DHT22;24847;48.218;16.414;2023-11-22T09:23:07;4.00;72.70
39103;DHT22;24847;48.218;16.414;2023-11-22T09:28:10;4.20;71.20
39103;DHT22;24847;48.218;16.414;2023-11-22T09:33:14;4.20;70.20
39103;DHT22;24847;48.218;16.414;2023-11-22T09:38:17;4.40;69.70
39103;DHT22;24847;48.218;16.414;2023-11-22T09:43:21;4.30;68.90
39103;DHT22;24847;48.218;16.414;2023-11-22T09:48:25;4.50;68.10
39103;DHT22;24847;48.218;16.414;2023-11-22T09:53:31;4.50;68.70
39103;DHT22;24847;48.218;16.414;2023-11-22T09:58:39;4.50;68.50
39103;DHT22;24847;48.218;16.414;2023-11-22T10:03:44;4.50;66.70
39103;DHT22;24847;48.218;16.414;2023-11-22T10:08:47;4.60;66.90
39103;DHT22;24847;48.218;16.414;2023-11-22T10:13:51;4.40;67.50
39103;DHT22;24847;48.218;16.414;2023-11-22T10:18:53;4.70;67.10
39103;DHT22;24847;48.218;16.414;2023-11-22T10:23:55;4.50;66.90
39103;DHT22;24847;48.218;16.414;2023-11-22T10:28:59;4.40;68.10
39103;DHT22;24847;48.218;16.414;2023-11-22T10:34:03;4.70;67.30
39103;DHT22;24847;48.218;16.414;2023-11-22T10:39:08;4.60;68.10
39103;DHT22;24847;48.218;16.414;2023-11-22T10:44:20;4.40;69.00
39103;DHT22;24847;48.218;16.414;2023-11-22T10:49:22;4.60;68.60
39103;DHT22;24847;48.218;16.414;2023-11-22T10:54:26;4.30;70.10
39103;DHT22;24847;48.218;16.414;2023-11-22T10:59:30;4.10;71.10
39103;DHT22;24847;48.218;16.414;2023-11-22T11:04:34;4.10;71.50
39103;DHT22;24847;48.218;16.414;2023-11-22T11:09:43;4.30;70.00
39103;DHT22;24847;48.218;16.414;2023-11-22T11:14:49;4.20;70.90
39103;DHT22;24847;48.218;16.414;2023-11-22T11:19:52;4.30;70.80
39103;DHT22;24847;48.218;16.414;2023-11-22T11:25:01;4.20;71.20
39103;DHT22;24847;48.218;16.414;2023-11-22T11:35:47;4.10;69.80
39103;DHT22;24847;48.218;16.414;2023-11-22T11:40:52;3.90;70.10
39103;DHT22;24847;48.218;16.414;2023-11-22T11:46:00;4.00;70.10
39103;DHT22;24847;48.218;16.414;2023-11-22T11:51:02;4.10;70.90
39103;DHT22;24847;48.218;16.414;2023-11-22T11:56:06;4.40;70.10
39103;DHT22;24847;48.218;16.414;2023-11-22T12:01:11;4.10;72.00
39103;DHT22;24847;48.218;16.414;2023-11-22T12:06:14;4.10;72.40
39103;DHT22;24847;48.218;16.414;2023-11-22T12:11:17;4.00;74.10
39103;DHT22;24847;48.218;16.414;2023-11-22T12:16:21;3.90;73.30
39103;DHT22;24847;48.218;16.414;2023-11-22T12:21:24;4.20;71.60
39103;DHT22;24847;48.218;16.414;2023-11-22T12:26:27;3.90;72.80
39103;DHT22;24847;48.218;16.414;2023-11-22T12:31:33;4.00;72.40
39103;DHT22;24847;48.218;16.414;2023-11-22T12:36:36;4.00;71.90
39103;DHT22;24847;48.218;16.414;2023-11-22T12:41:42;3.90;73.20
39103;DHT22;24847;48.218;16.414;2023-11-22T12:46:48;4.20;71.20
39103;DHT22;24847;48.218;16.414;2023-11-22T12:51:56;4.40;70.00
39103;DHT22;24847;48.218;16.414;2023-11-22T12:56:58;4.00;70.40
39103;DHT22;24847;48.218;16.414;2023-11-22T13:02:02;3.90;71.20
39103;DHT22;24847;48.218;16.414;2023-11-22T13:07:06;4.00;69.80
39103;DHT22;24847;48.218;16.414;2023-11-22T13:12:08;4.10;69.40
39103;DHT22;24847;48.218;16.414;2023-11-22T13:17:11;4.00;69.70
39103;DHT22;24847;48.218;16.414;2023-11-22T13:22:15;3.90;69.30
39103;DHT22;24847;48.218;16.414;2023-11-22T13:27:17;3.90;69.60
39103;DHT22;24847;48.218;16.414;2023-11-22T13:32:20;4.10;69.20
39103;DHT22;24847;48.218;16.414;2023-11-22T13:37:25;4.20;69.70
39103;DHT22;24847;48.218;16.414;2023-11-22T13:42:28;4.10;68.00
39103;DHT22;24847;48.218;16.414;2023-11-22T13:47:31;4.20;69.10
39103;DHT22;24847;48.218;16.414;2023-11-22T13:52:34;4.00;69.70
39103;DHT22;24847;48.218;16.414;2023-11-22T13:57:36;4.00;70.60
39103;DHT22;24847;48.218;16.414;2023-11-22T14:02:40;3.80;70.40
39103;DHT22;24847;48.218;16.414;2023-11-22T14:07:43;3.80;69.90
39103;DHT22;24847;48.218;16.414;2023-11-22T14:12:45;3.60;70.80
39103;DHT22;24847;48.218;16.414;2023-11-22T14:17:49;3.70;70.50
39103;DHT22;24847;48.218;16.414;2023-11-22T14:22:53;3.70;70.50
39103;DHT22;24847;48.218;16.414;2023-11-22T14:27:55;3.90;69.80
39103;DHT22;24847;48.218;16.414;2023-11-22T14:32:59;4.00;70.00
39103;DHT22;24847;48.218;16.414;2023-11-22T14:38:03;3.80;71.00
39103;DHT22;24847;48.218;16.414;2023-11-22T14:43:06;3.70;70.40
39103;DHT22;24847;48.218;16.414;2023-11-22T14:48:10;4.00;70.70
39103;DHT22;24847;48.218;16.414;2023-11-22T14:53:13;3.80;70.70
39103;DHT22;24847;48.218;16.414;2023-11-22T14:58:15;3.70;70.80
39103;DHT22;24847;48.218;16.414;2023-11-22T15:03:19;3.70;70.10
39103;DHT22;24847;48.218;16.414;2023-11-22T15:08:21;3.60;71.80
39103;DHT22;24847;48.218;16.414;2023-11-22T15:13:25;3.80;70.80
39103;DHT22;24847;48.218;16.414;2023-11-22T15:18:29;3.60;70.80
39103;DHT22;24847;48.218;16.414;2023-11-22T15:23:31;3.90;70.40
39103;DHT22;24847;48.218;16.414;2023-11-22T15:28:33;3.90;70.20
39103;DHT22;24847;48.218;16.414;2023-11-22T15:33:37;3.70;69.90
39103;DHT22;24847;48.218;16.414;2023-11-22T15:38:39;3.70;70.90
39103;DHT22;24847;48.218;16.414;2023-11-22T15:43:41;3.70;71.40
39103;DHT22;24847;48.218;16.414;2023-11-22T15:48:45;3.80;70.40
39103;DHT22;24847;48.218;16.414;2023-11-22T15:53:48;3.60;70.30
39103;DHT22;24847;48.218;16.414;2023-11-22T15:58:50;3.70;71.50
39103;DHT22;24847;48.218;16.414;2023-11-22T16:03:54;3.60;71.60
39103;DHT22;24847;48.218;16.414;2023-11-22T16:08:56;3.60;71.30
39103;DHT22;24847;48.218;16.414;2023-11-22T16:13:59;3.80;70.60
39103;DHT22;24847;48.218;16.414;2023-11-22T16:19:02;3.80;70.60
39103;DHT22;24847;48.218;16.414;2023-11-22T16:24:06;3.60;71.50
39103;DHT22;24847;48.218;16.414;2023-11-22T16:29:08;3.60;71.30
39103;DHT22;24847;48.218;16.414;2023-11-22T16:34:13;3.70;71.60
39103;DHT22;24847;48.218;16.414;2023-11-22T16:39:15;3.90;71.00
39103;DHT22;24847;48.218;16.414;2023-11-22T16:44:20;3.80;72.30
39103;DHT22;24847;48.218;16.414;2023-11-22T16:49:24;3.80;72.10
39103;DHT22;24847;48.218;16.414;2023-11-22T16:54:26;4.00;72.50
39103;DHT22;24847;48.218;16.414;2023-11-22T16:59:29;3.70;72.20
39103;DHT22;24847;48.218;16.414;2023-11-22T17:04:32;3.80;70.40
39103;DHT22;24847;48.218;16.414;2023-11-22T17:09:34;3.60;70.80
39103;DHT22;24847;48.218;16.414;2023-11-22T17:14:37;3.50;70.60
39103;DHT22;24847;48.218;16.414;2023-11-22T17:19:41;3.50;70.50
39103;DHT22;24847;48.218;16.414;2023-11-22T17:24:43;3.60;70.10
39103;DHT22;24847;48.218;16.414;2023-11-22T17:29:46;3.40;69.50
39103;DHT22;24847;48.218;16.414;2023-11-22T17:34:53;3.50;68.90
39103;DHT22;24847;48.218;16.414;2023-11-22T17:39:55;3.40;68.80
39103;DHT22;24847;48.218;16.414;2023-11-22T17:44:57;3.20;69.30
39103;DHT22;24847;48.218;16.414;2023-11-22T17:50:00;2.90;69.60
39103;DHT22;24847;48.218;16.414;2023-11-22T17:55:04;3.10;68.60
39103;DHT22;24847;48.218;16.414;2023-11-22T18:00:08;2.90;69.60
39103;DHT22;24847;48.218;16.414;2023-11-22T18:05:12;3.00;69.20
39103;DHT22;24847;48.218;16.414;2023-11-22T18:10:14;2.80;70.30
39103;DHT22;24847;48.218;16.414;2023-11-22T18:15:17;2.90;70.20
39103;DHT22;24847;48.218;16.414;2023-11-22T18:20:21;2.90;69.90
39103;DHT22;24847;48.218;16.414;2023-11-22T18:25:23;2.90;70.20
39103;DHT22;24847;48.218;16.414;2023-11-22T18:30:26;3.00;70.50
39103;DHT22;24847;48.218;16.414;2023-11-22T18:35:29;2.80;70.70
39103;DHT22;24847;48.218;16.414;2023-11-22T18:40:32;2.90;70.40
39103;DHT22;24847;48.218;16.414;2023-11-22T18:45:34;3.00;69.80
39103;DHT22;24847;48.218;16.414;2023-11-22T18:50:38;2.90;70.40
39103;DHT22;24847;48.218;16.414;2023-11-22T18:55:40;2.90;70.40
39103;DHT22;24847;48.218;16.414;2023-11-22T19:00:42;2.90;70.30
39103;DHT22;24847;48.218;16.414;2023-11-22T19:05:46;3.00;69.90
39103;DHT22;24847;48.218;16.414;2023-11-22T19:10:48;2.80;70.40
39103;DHT22;24847;48.218;16.414;2023-11-22T19:15:51;2.60;70.80
39103;DHT22;24847;48.218;16.414;2023-11-22T19:20:57;2.80;70.40
39103;DHT22;24847;48.218;16.414;2023-11-22T19:26:04;2.80;70.40
39103;DHT22;24847;48.218;16.414;2023-11-22T19:31:09;2.60;70.20
39103;DHT22;24847;48.218;16.414;2023-11-22T19:36:20;2.60;70.40
39103;DHT22;24847;48.218;16.414;2023-11-22T19:41:23;2.80;70.40
39103;DHT22;24847;48.218;16.414;2023-11-22T19:46:28;2.80;70.40
39103;DHT22;24847;48.218;16.414;2023-11-22T19:51:32;2.70;70.50
39103;DHT22;24847;48.218;16.414;2023-11-22T19:56:37;2.70;71.10
39103;DHT22;24847;48.218;16.414;2023-11-22T20:01:40;2.70;70.90
39103;DHT22;24847;48.218;16.414;2023-11-22T20:06:47;2.70;71.30
39103;DHT22;24847;48.218;16.414;2023-11-22T20:11:50;2.60;71.30
39103;DHT22;24847;48.218;16.414;2023-11-22T20:16:53;2.70;71.10
39103;DHT22;24847;48.218;16.414;2023-11-22T20:21:57;2.70;70.90
39103;DHT22;24847;48.218;16.414;2023-11-22T20:26:59;2.70;71.60
39103;DHT22;24847;48.218;16.414;2023-11-22T20:32:02;2.70;71.20
39103;DHT22;24847;48.218;16.414;2023-11-22T20:37:06;2.80;71.70
39103;DHT22;24847;48.218;16.414;2023-11-22T20:42:08;2.90;71.00
39103;DHT22;24847;48.218;16.414;2023-11-22T20:47:10;2.70;71.80
39103;DHT22;24847;48.218;16.414;2023-11-22T20:52:14;2.90;71.70
39103;DHT22;24847;48.218;16.414;2023-11-22T20:57:16;2.80;72.30
39103;DHT22;24847;48.218;16.414;2023-11-22T21:02:18;2.70;73.20
39103;DHT22;24847;48.218;16.414;2023-11-22T21:07:22;2.70;73.20
39103;DHT22;24847;48.218;16.414;2023-11-22T21:12:24;2.70;73.00
39103;DHT22;24847;48.218;16.414;2023-11-22T21:17:26;2.60;73.60
39103;DHT22;24847;48.218;16.414;2023-11-22T21:22:29;2.60;74.30
39103;DHT22;24847;48.218;16.414;2023-11-22T21:27:31;2.70;74.00
39103;DHT22;24847;48.218;16.414;2023-11-22T21:32:34;2.80;73.70
39103;DHT22;24847;48.218;16.414;2023-11-22T21:37:37;2.70;74.10
39103;DHT22;24847;48.218;16.414;2023-11-22T21:42:39;2.70;74.90
39103;DHT22;24847;48.218;16.414;2023-11-22T21:47:41;2.80;74.50
39103;DHT22;24847;48.218;16.414;2023-11-22T21:52:45;2.80;74.70
39103;DHT22;24847;48.218;16.414;2023-11-22T21:57:47;2.70;74.80
39103;DHT22;24847;48.218;16.414;2023-11-22T22:02:49;2.80;74.30
39103;DHT22;24847;48.218;16.414;2023-11-22T22:07:53;2.70;74.90
39103;DHT22;24847;48.218;16.414;2023-11-22T22:12:55;2.90;74.50
39103;DHT22;24847;48.218;16.414;2023-11-22T22:17:57;2.80;74.70
39103;DHT22;24847;48.218;16.414;2023-11-22T22:23:01;2.80;75.00
39103;DHT22;24847;48.218;16.414;2023-11-22T22:28:03;2.90;74.40
39103;DHT22;24847;48.218;16.414;2023-11-22T22:33:05;2.90;75.20
39103;DHT22;24847;48.218;16.414;2023-11-22T22:38:09;3.00;74.70
39103;DHT22;24847;48.218;16.414;2023-11-22T22:43:11;3.00;74.50
39103;DHT22;24847;48.218;16.414;2023-11-22T22:48:13;3.00;74.10
39103;DHT22;24847;48.218;16.414;2023-11-22T22:53:17;3.00;74.10
39103;DHT22;24847;48.218;16.414;2023-11-22T22:58:19;2.90;74.40
39103;DHT22;24847;48.218;16.414;2023-11-22T23:03:22;2.90;74.30
39103;DHT22;24847;48.218;16.414;2023-11-22T23:08:25;3.00;74.40
39103;DHT22;24847;48.218;16.414;2023-11-22T23:13:28;3.00;75.10
39103;DHT22;24847;48.218;16.414;2023-11-22T23:18:30;3.00;74.30
39103;DHT22;24847;48.218;16.414;2023-11-22T23:23:34;3.20;73.30
39103;DHT22;24847;48.218;16.414;2023-11-22T23:28:36;3.10;73.90
39103;DHT22;24847;48.218;16.414;2023-11-22T23:33:38;3.00;74.00
39103;DHT22;24847;48.218;16.414;2023-11-22T23:38:42;3.30;79.90
39103;DHT22;24847;48.218;16.414;2023-11-22T23:43:46;3.20;75.60
39103;DHT22;24847;48.218;16.414;2023-11-22T23:48:50;3.10;74.70
39103;DHT22;24847;48.218;16.414;2023-11-22T23:53:53;3.20;75.10
39103;DHT22;24847;48.218;16.414;2023-11-22T23:58:55;3.00;75.60
